createdAt,value
2022-08-28T00:00:17.424Z,101636.72
2022-08-28T00:02:46.589Z,101633.00
2022-08-28T00:05:15.985Z,101632.72
2022-08-28T00:07:47.486Z,101631.78
2022-08-28T00:10:17.267Z,101631.31
2022-08-28T00:12:45.639Z,101630.84
2022-08-28T00:15:17.343Z,101625.38
2022-08-28T00:17:44.870Z,101625.88
2022-08-28T00:20:13.640Z,101630.00
2022-08-28T00:22:41.300Z,101632.00
2022-08-28T00:25:10.453Z,101628.75
2022-08-28T00:27:55.292Z,101638.91
2022-08-28T00:30:31.376Z,101641.03
2022-08-28T00:33:02.431Z,101635.34
2022-08-28T00:35:30.305Z,101638.31
2022-08-28T00:37:57.516Z,101634.44
2022-08-28T00:40:32.523Z,101638.00
2022-08-28T00:43:02.846Z,101638.19
2022-08-28T00:45:31.917Z,101638.38
2022-08-28T00:48:00.951Z,101641.31
2022-08-28T00:50:51.685Z,101639.88
2022-08-28T00:53:19.715Z,101639.88
2022-08-28T00:55:50.377Z,101636.09
2022-08-28T00:58:18.000Z,101628.44
2022-08-28T01:01:03.326Z,101632.22
2022-08-28T01:03:29.889Z,101634.53
2022-08-28T01:05:57.707Z,101640.91
2022-08-28T01:08:24.437Z,101636.69
2022-08-28T01:10:55.569Z,101633.78
2022-08-28T01:13:24.232Z,101634.09
2022-08-28T01:15:54.529Z,101636.41
2022-08-28T01:18:22.467Z,101639.38
2022-08-28T01:20:58.880Z,101636.78
2022-08-28T01:23:51.595Z,101640.38
2022-08-28T01:26:18.227Z,101642.66
2022-08-28T01:28:45.567Z,101640.06
2022-08-28T01:31:14.812Z,101640.06
2022-08-28T01:33:42.809Z,101651.66
2022-08-28T01:36:12.211Z,101648.41
2022-08-28T01:38:40.504Z,101646.78
2022-08-28T01:41:07.438Z,101649.72
2022-08-28T01:43:34.038Z,101651.34
2022-08-28T01:46:05.010Z,101647.63
2022-08-28T01:48:35.073Z,101652.38
2022-08-28T01:51:03.047Z,101653.06
2022-08-28T01:53:33.109Z,101649.13
2022-08-28T01:56:01.779Z,101646.19
2022-08-28T01:58:30.414Z,101650.78
2022-08-28T02:00:57.653Z,101656.97
2022-08-28T02:03:24.526Z,101657.16
2022-08-28T02:05:51.369Z,101654.22
2022-08-28T02:08:18.304Z,101653.13
2022-08-28T02:10:47.117Z,101657.19
2022-08-28T02:13:14.906Z,101658.34
2022-08-28T02:15:42.431Z,101663.88
2022-08-28T02:18:27.997Z,101667.50
2022-08-28T02:20:54.603Z,101669.59
2022-08-28T02:23:22.031Z,101672.72
2022-08-28T02:25:49.848Z,101671.25
2022-08-28T02:28:18.604Z,101674.03
2022-08-28T02:30:46.047Z,101677.31
2022-08-28T02:33:12.802Z,101670.44
2022-08-28T02:35:42.528Z,101680.56
2022-08-28T02:38:10.177Z,101672.09
2022-08-28T02:40:37.324Z,101668.00
2022-08-28T02:43:05.429Z,101673.41
2022-08-28T02:45:32.790Z,101674.38
2022-08-28T02:48:01.598Z,101671.47
2022-08-28T02:50:29.955Z,101670.63
2022-08-28T02:52:57.129Z,101669.47
2022-08-28T02:55:24.785Z,101673.09
2022-08-28T02:57:52.850Z,101672.41
2022-08-28T03:00:23.279Z,101672.91
2022-08-28T03:02:51.186Z,101676.50
2022-08-28T03:05:21.270Z,101670.00
2022-08-28T03:07:53.240Z,101671.78
2022-08-28T03:10:20.499Z,101671.13
2022-08-28T03:12:47.730Z,101671.28
2022-08-28T03:15:14.502Z,101671.63
2022-08-28T03:17:41.235Z,101676.97
2022-08-28T03:24:01.621Z,101681.53
2022-08-28T03:26:28.631Z,101679.75
2022-08-28T03:28:57.561Z,101681.72
2022-08-28T03:31:29.373Z,101680.25
2022-08-28T03:33:57.591Z,101681.19
2022-08-28T03:36:26.407Z,101683.97
2022-08-28T03:38:56.664Z,101679.75
2022-08-28T03:41:26.995Z,101683.31
2022-08-28T03:43:53.651Z,101687.06
2022-08-28T03:46:23.910Z,101685.28
2022-08-28T03:48:51.702Z,101694.22
2022-08-28T03:51:25.495Z,101691.47
2022-08-28T03:53:58.110Z,101694.22
2022-08-28T03:56:27.034Z,101695.84
2022-08-28T03:58:57.440Z,101701.22
2022-08-28T04:01:26.085Z,101696.00
2022-08-28T04:03:52.814Z,101693.41
2022-08-28T04:06:19.888Z,101695.06
2022-08-28T04:08:47.972Z,101700.09
2022-08-28T04:11:15.699Z,101703.34
2022-08-28T04:13:42.324Z,101706.13
2022-08-28T04:16:11.897Z,101700.91
2022-08-28T04:18:58.044Z,101698.31
2022-08-28T04:21:26.104Z,101702.69
2022-08-28T04:23:54.001Z,101702.69
2022-08-28T04:26:24.151Z,101704.34
2022-08-28T04:28:52.630Z,101704.16
2022-08-28T04:31:32.042Z,101709.22
2022-08-28T04:34:01.708Z,101721.44
2022-08-28T04:36:29.124Z,101717.19
2022-08-28T04:38:57.702Z,101723.25
2022-08-28T04:41:24.342Z,101724.72
2022-08-28T04:43:52.787Z,101717.53
2022-08-28T04:46:20.492Z,101722.59
2022-08-28T04:48:47.253Z,101719.31
2022-08-28T04:51:15.143Z,101728.78
2022-08-28T04:53:43.086Z,101725.22
2022-08-28T04:56:12.336Z,101729.28
2022-08-28T04:58:40.332Z,101726.19
2022-08-28T05:01:11.295Z,101731.88
2022-08-28T05:03:38.192Z,101735.78
2022-08-28T05:06:05.439Z,101732.88
2022-08-28T05:08:32.148Z,101732.06
2022-08-28T05:11:13.798Z,101734.34
2022-08-28T05:13:57.411Z,101731.44
2022-08-28T05:16:24.279Z,101738.09
2022-08-28T05:18:50.987Z,101739.56
2022-08-28T05:21:21.752Z,101738.09
2022-08-28T05:23:49.917Z,101736.66
2022-08-28T05:26:18.443Z,101741.19
2022-08-28T05:28:45.140Z,101740.19
2022-08-28T05:31:16.088Z,101745.75
2022-08-28T05:33:47.453Z,101752.13
2022-08-28T05:36:15.095Z,101756.19
2022-08-28T05:38:42.067Z,101752.41
2022-08-28T05:41:08.914Z,101752.75
2022-08-28T05:43:36.154Z,101752.91
2022-08-28T05:46:07.534Z,101750.97
2022-08-28T05:48:38.309Z,101746.22
2022-08-28T05:51:11.594Z,101754.34
2022-08-28T05:53:41.225Z,101751.34
2022-08-28T05:56:13.619Z,101749.38
2022-08-28T05:58:41.703Z,101747.50
2022-08-28T06:01:10.517Z,101741.69
2022-08-28T06:03:38.637Z,101737.97
2022-08-28T06:06:06.260Z,101749.41
2022-08-28T06:08:33.139Z,101745.28
2022-08-28T06:11:02.227Z,101744.63
2022-08-28T06:13:30.432Z,101755.38
2022-08-28T06:15:57.498Z,101751.72
2022-08-28T06:18:25.737Z,101754.88
2022-08-28T06:20:53.488Z,101756.47
2022-08-28T06:23:24.029Z,101759.38
2022-08-28T06:25:52.199Z,101752.31
2022-08-28T06:28:23.951Z,101755.66
2022-08-28T06:31:15.744Z,101765.53
2022-08-28T06:33:38.800Z,101765.00
2022-08-28T06:36:25.190Z,101773.34
2022-08-28T06:38:51.835Z,101774.94
2022-08-28T06:41:19.272Z,101770.56
2022-08-28T06:43:45.831Z,101782.63
2022-08-28T06:46:12.448Z,101772.44
2022-08-28T06:48:40.272Z,101777.94
2022-08-28T06:51:09.621Z,101778.53
2022-08-28T06:53:55.031Z,101779.34
2022-08-28T06:56:26.389Z,101779.19
2022-08-28T06:58:56.403Z,101774.41
2022-08-28T07:01:35.365Z,101772.59
2022-08-28T07:04:07.337Z,101784.78
2022-08-28T07:06:36.807Z,101776.22
2022-08-28T07:09:06.021Z,101783.97
2022-08-28T07:11:33.852Z,101775.78
2022-08-28T07:14:01.545Z,101768.84
2022-08-28T07:16:31.945Z,101771.31
2022-08-28T07:19:02.607Z,101776.38
2022-08-28T07:21:31.125Z,101772.81
2022-08-28T07:23:58.203Z,101778.72
2022-08-28T07:26:26.499Z,101766.13
2022-08-28T07:28:59.531Z,101772.09
2022-08-28T07:31:40.984Z,101774.06
2022-08-28T07:34:09.493Z,101772.50
2022-08-28T07:36:36.525Z,101777.19
2022-08-28T07:39:04.992Z,101772.91
2022-08-28T07:41:35.592Z,101770.88
2022-08-28T07:44:22.536Z,101779.75
2022-08-28T07:46:53.756Z,101778.25
2022-08-28T07:49:20.529Z,101778.63
2022-08-28T07:51:47.297Z,101776.19
2022-08-28T07:54:17.719Z,101777.88
2022-08-28T07:56:45.412Z,101780.31
2022-08-28T07:59:16.595Z,101778.59
2022-08-28T08:01:46.550Z,101786.88
2022-08-28T08:04:21.975Z,101788.22
2022-08-28T08:06:49.092Z,101783.28
2022-08-28T08:09:18.220Z,101785.78
2022-08-28T08:12:05.632Z,101797.88
2022-08-28T08:14:32.387Z,101789.97
2022-08-28T08:17:02.183Z,101789.22
2022-08-28T08:19:29.105Z,101793.41
2022-08-28T08:21:56.363Z,101787.38
2022-08-28T08:24:26.727Z,101799.56
2022-08-28T08:26:59.714Z,101794.88
2022-08-28T08:29:31.416Z,101795.56
2022-08-28T08:32:05.749Z,101800.63
2022-08-28T08:34:36.534Z,101807.66
2022-08-28T08:37:03.632Z,101811.88
2022-08-28T08:39:31.736Z,101800.78
2022-08-28T08:42:01.078Z,101804.69
2022-08-28T08:44:39.063Z,101809.22
2022-08-28T08:47:20.183Z,101817.13
2022-08-28T08:49:54.579Z,101808.28
2022-08-28T08:52:35.427Z,101812.47
2022-08-28T08:55:45.130Z,101811.28
2022-08-28T08:58:21.558Z,101809.78
2022-08-28T09:01:09.659Z,101812.66
2022-08-28T09:03:55.406Z,101801.47
2022-08-28T09:06:51.910Z,101791.94
2022-08-28T09:09:35.125Z,101795.59
2022-08-28T09:12:16.218Z,101801.72
2022-08-28T09:15:26.798Z,101799.72
2022-08-28T09:18:08.166Z,101806.34
2022-08-28T09:20:34.948Z,101807.75
2022-08-28T09:23:02.057Z,101806.94
2022-08-28T09:25:47.689Z,101803.09
2022-08-28T09:28:19.717Z,101808.63
2022-08-28T09:30:58.546Z,101807.69
2022-08-28T09:33:41.889Z,101813.81
2022-08-28T09:36:24.138Z,101807.16
2022-08-28T09:39:07.706Z,101802.13
2022-08-28T09:42:02.875Z,101813.53
2022-08-28T09:44:30.158Z,101799.66
2022-08-28T09:46:56.866Z,101795.16
2022-08-28T09:49:30.805Z,101796.94
2022-08-28T09:52:02.025Z,101804.00
2022-08-28T09:54:48.430Z,101802.31
2022-08-28T09:57:15.067Z,101812.13
2022-08-28T09:59:42.295Z,101807.19
2022-08-28T10:02:40.678Z,101810.38
2022-08-28T10:05:12.859Z,101802.38
2022-08-28T10:07:56.105Z,101800.22
2022-08-28T10:10:40.518Z,101807.94
2022-08-28T10:13:21.100Z,101803.97
2022-08-28T10:16:35.479Z,101786.84
2022-08-28T10:19:35.714Z,101791.91
2022-08-28T10:22:30.453Z,101797.16
2022-08-28T10:25:16.603Z,101787.72
2022-08-28T10:27:55.293Z,101796.91
2022-08-28T10:30:46.670Z,101797.41
2022-08-28T10:33:39.708Z,101791.19
2022-08-28T10:36:33.221Z,101779.81
2022-08-28T10:39:14.266Z,101801.44
2022-08-28T10:42:00.071Z,101787.22
2022-08-28T10:44:58.856Z,101792.59
2022-08-28T10:47:29.571Z,101793.22
2022-08-28T10:50:02.001Z,101791.69
2022-08-28T10:52:38.635Z,101786.66
2022-08-28T10:55:07.803Z,101785.72
2022-08-28T10:57:47.265Z,101799.28
2022-08-28T11:00:18.568Z,101794.06
2022-08-28T11:02:50.120Z,101792.31
2022-08-28T11:05:23.230Z,101797.31
2022-08-28T11:07:54.579Z,101795.69
2022-08-28T11:10:37.314Z,101795.38
2022-08-28T11:13:06.870Z,101789.50
2022-08-28T11:15:37.133Z,101778.91
2022-08-28T11:18:16.244Z,101781.22
2022-08-28T11:21:19.879Z,101780.53
2022-08-28T11:27:00.424Z,101783.81
2022-08-28T11:29:57.977Z,101792.06
2022-08-28T11:32:52.488Z,101788.44
2022-08-28T11:35:31.012Z,101784.38
2022-08-28T11:37:58.490Z,101788.19
2022-08-28T11:40:31.809Z,101776.94
2022-08-28T11:43:17.057Z,101779.19
2022-08-28T11:45:46.561Z,101788.00
2022-08-28T11:48:25.812Z,101798.81
2022-08-28T11:51:09.625Z,101784.50
2022-08-28T11:53:54.755Z,101792.94
2022-08-28T11:57:01.704Z,101782.69
2022-08-28T11:59:59.581Z,101797.81
2022-08-28T12:02:41.205Z,101794.19
2022-08-28T12:05:31.749Z,101801.09
2022-08-28T12:08:00.716Z,101802.56
2022-08-28T12:10:32.401Z,101799.47
2022-08-28T12:13:01.798Z,101795.56
2022-08-28T12:15:28.331Z,101796.94
2022-08-28T12:17:57.959Z,101778.44
2022-08-28T12:20:49.161Z,101790.06
2022-08-28T12:23:37.085Z,101790.22
2022-08-28T12:26:06.722Z,101771.31
2022-08-28T12:28:44.841Z,101788.66
2022-08-28T12:31:45.948Z,101790.47
2022-08-28T12:34:30.937Z,101794.13
2022-08-28T12:37:02.394Z,101787.44
2022-08-28T12:39:32.511Z,101788.25
2022-08-28T12:42:00.212Z,101787.34
2022-08-28T12:44:31.130Z,101789.06
2022-08-28T12:46:59.060Z,101787.56
2022-08-28T12:49:37.026Z,101789.50
2022-08-28T12:52:25.741Z,101788.00
2022-08-28T12:54:55.458Z,101787.13
2022-08-28T12:57:25.422Z,101778.50
2022-08-28T12:59:54.972Z,101776.41
2022-08-28T13:02:36.361Z,101780.06
2022-08-28T13:05:12.113Z,101779.63
2022-08-28T13:07:45.467Z,101793.34
2022-08-28T13:10:36.536Z,101784.09
2022-08-28T13:13:08.130Z,101778.22
2022-08-28T13:15:46.982Z,101780.31
2022-08-28T13:19:12.335Z,101783.38
2022-08-28T13:21:47.959Z,101764.38
2022-08-28T13:24:21.986Z,101765.09
2022-08-28T13:27:15.788Z,101763.28
2022-08-28T13:30:03.720Z,101768.91
2022-08-28T13:32:33.386Z,101777.09
2022-08-28T13:35:09.196Z,101768.22
2022-08-28T13:37:48.906Z,101781.59
2022-08-28T13:40:53.425Z,101777.44
2022-08-28T13:43:11.184Z,101775.16
2022-08-28T13:45:44.039Z,101769.03
2022-08-28T13:48:15.843Z,101765.22
2022-08-28T13:50:47.227Z,101768.34
2022-08-28T13:53:17.097Z,101766.47
2022-08-28T13:55:45.414Z,101754.53
2022-08-28T13:58:13.858Z,101767.00
2022-08-28T14:00:47.003Z,101763.75
2022-08-28T14:03:33.413Z,101756.50
2022-08-28T14:06:00.129Z,101759.41
2022-08-28T14:08:26.928Z,101751.56
2022-08-28T14:10:53.561Z,101750.19
2022-08-28T14:13:23.099Z,101751.31
2022-08-28T14:15:49.770Z,101751.66
2022-08-28T14:18:18.163Z,101760.63
2022-08-28T14:20:44.799Z,101741.28
2022-08-28T14:23:11.767Z,101747.16
2022-08-28T14:25:47.390Z,101751.22
2022-08-28T14:28:15.007Z,101753.53
2022-08-28T14:30:48.806Z,101750.22
2022-08-28T14:33:18.747Z,101751.16
2022-08-28T14:35:47.470Z,101752.78
2022-08-28T14:38:14.340Z,101749.75
2022-08-28T14:40:43.150Z,101747.69
2022-08-28T14:43:11.940Z,101758.97
2022-08-28T14:45:56.883Z,101757.00
2022-08-28T14:48:23.575Z,101755.78
2022-08-28T14:51:27.806Z,101756.09
2022-08-28T14:53:54.683Z,101751.13
2022-08-28T14:56:22.415Z,101760.34
2022-08-28T14:58:49.155Z,101763.34
2022-08-28T15:01:39.596Z,101759.09
2022-08-28T15:04:11.527Z,101765.31
2022-08-28T15:06:42.455Z,101764.75
2022-08-28T15:09:11.525Z,101766.34
2022-08-28T15:11:39.300Z,101762.97
2022-08-28T15:14:06.511Z,101772.13
2022-08-28T15:16:36.659Z,101763.78
2022-08-28T15:19:04.148Z,101773.56
2022-08-28T15:21:38.469Z,101774.88
2022-08-28T15:24:06.859Z,101777.94
2022-08-28T15:26:34.257Z,101780.88
2022-08-28T15:31:54.864Z,101772.19
2022-08-28T15:34:25.132Z,101780.97
2022-08-28T15:36:55.805Z,101772.22
2022-08-28T15:39:46.470Z,101763.56
2022-08-28T15:42:13.811Z,101763.44
2022-08-28T15:44:42.062Z,101771.59
2022-08-28T15:47:09.333Z,101768.59
2022-08-28T15:49:44.657Z,101765.81
2022-08-28T15:52:18.276Z,101758.50
2022-08-28T15:54:45.035Z,101758.78
2022-08-28T15:57:11.662Z,101764.09
2022-08-28T15:59:49.177Z,101763.06
2022-08-28T16:02:18.073Z,101762.63
2022-08-28T16:04:44.925Z,101768.94
2022-08-28T16:07:11.517Z,101773.91
2022-08-28T16:09:38.188Z,101770.53
2022-08-28T16:12:05.101Z,101769.22
2022-08-28T16:14:33.154Z,101766.66
2022-08-28T16:17:05.521Z,101774.25
2022-08-28T16:19:37.159Z,101767.84
2022-08-28T16:22:03.802Z,101772.94
2022-08-28T16:24:31.457Z,101776.22
2022-08-28T16:26:58.038Z,101766.09
2022-08-28T16:29:24.731Z,101766.38
2022-08-28T16:31:51.417Z,101766.00
2022-08-28T16:34:19.571Z,101767.97
2022-08-28T16:36:50.534Z,101763.28
2022-08-28T16:39:18.041Z,101771.00
2022-08-28T16:41:49.881Z,101772.38
2022-08-28T16:44:26.165Z,101774.41
2022-08-28T16:46:54.395Z,101767.72
2022-08-28T16:49:21.359Z,101767.25
2022-08-28T16:51:48.058Z,101772.69
2022-08-28T16:54:16.217Z,101769.47
2022-08-28T16:56:42.862Z,101761.88
2022-08-28T16:59:10.483Z,101762.94
2022-08-28T17:01:40.729Z,101759.03
2022-08-28T17:04:08.149Z,101767.84
2022-08-28T17:06:34.956Z,101773.19
2022-08-28T17:09:01.764Z,101766.97
2022-08-28T17:11:31.113Z,101768.81
2022-08-28T17:13:59.372Z,101760.88
2022-08-28T17:16:32.122Z,101767.75
2022-08-28T17:18:59.519Z,101767.56
2022-08-28T17:21:45.221Z,101760.78
2022-08-28T17:24:12.695Z,101763.28
2022-08-28T17:26:40.639Z,101769.03
2022-08-28T17:29:26.152Z,101763.00
2022-08-28T17:31:53.284Z,101767.16
2022-08-28T17:34:21.417Z,101765.47
2022-08-28T17:36:49.325Z,101768.22
2022-08-28T17:39:16.279Z,101774.50
2022-08-28T17:41:43.447Z,101776.38
2022-08-28T17:44:10.401Z,101779.28
2022-08-28T17:46:38.300Z,101783.59
2022-08-28T17:49:06.803Z,101782.81
2022-08-28T17:51:43.234Z,101791.81
2022-08-28T17:54:19.617Z,101790.59
2022-08-28T17:56:46.509Z,101786.75
2022-08-28T17:59:15.185Z,101800.63
2022-08-28T18:01:45.028Z,101794.38
2022-08-28T18:04:12.971Z,101792.38
2022-08-28T18:06:40.488Z,101799.25
2022-08-28T18:09:09.245Z,101799.69
2022-08-28T18:11:36.397Z,101796.06
2022-08-28T18:14:04.410Z,101795.66
2022-08-28T18:16:32.846Z,101794.88
2022-08-28T18:19:00.771Z,101799.94
2022-08-28T18:21:28.677Z,101802.59
2022-08-28T18:23:55.349Z,101795.72
2022-08-28T18:26:22.003Z,101808.31
2022-08-28T18:28:51.551Z,101807.47
2022-08-28T18:31:18.563Z,101809.50
2022-08-28T18:33:45.359Z,101813.97
2022-08-28T18:36:13.826Z,101812.72
2022-08-28T18:38:42.051Z,101805.66
2022-08-28T18:41:10.277Z,101813.72
2022-08-28T18:43:37.324Z,101822.22
2022-08-28T18:46:05.813Z,101818.59
2022-08-28T18:48:32.747Z,101821.03
2022-08-28T18:50:59.336Z,101817.97
2022-08-28T18:53:26.578Z,101820.19
2022-08-28T18:55:55.173Z,101820.19
2022-08-28T18:58:23.345Z,101822.81
2022-08-28T19:00:51.266Z,101827.63
2022-08-28T19:03:17.887Z,101828.41
2022-08-28T19:05:44.663Z,101830.00
2022-08-28T19:08:12.052Z,101835.03
2022-08-28T19:10:40.532Z,101842.09
2022-08-28T19:13:08.005Z,101839.25
2022-08-28T19:15:35.808Z,101845.09
2022-08-28T19:18:05.219Z,101853.59
2022-08-28T19:20:33.107Z,101855.41
2022-08-28T19:23:00.915Z,101862.06
2022-08-28T19:25:30.595Z,101854.75
2022-08-28T19:27:59.445Z,101862.41
2022-08-28T19:30:28.835Z,101858.34
2022-08-28T19:32:55.591Z,101858.31
2022-08-28T19:35:24.210Z,101854.88
2022-08-28T19:37:53.335Z,101857.06
2022-08-28T19:40:22.320Z,101854.00
2022-08-28T19:42:51.727Z,101857.84
2022-08-28T19:45:19.665Z,101858.41
2022-08-28T19:47:47.118Z,101862.63
2022-08-28T19:50:15.055Z,101860.75
2022-08-28T19:52:43.259Z,101864.13
2022-08-28T19:55:17.679Z,101862.44
2022-08-28T19:57:44.425Z,101866.84
2022-08-28T20:00:11.864Z,101868.59
2022-08-28T20:02:38.587Z,101872.38
2022-08-28T20:05:06.959Z,101872.13
2022-08-28T20:07:33.618Z,101870.88
2022-08-28T20:10:01.088Z,101876.06
2022-08-28T20:12:28.546Z,101873.19
2022-08-28T20:14:59.024Z,101875.19
2022-08-28T20:17:29.487Z,101878.19
2022-08-28T20:20:02.366Z,101882.19
2022-08-28T20:22:31.844Z,101880.31
2022-08-28T20:24:59.783Z,101878.06
2022-08-28T20:27:27.019Z,101878.63
2022-08-28T20:29:53.810Z,101884.44
2022-08-28T20:32:20.584Z,101882.78
2022-08-28T20:34:47.277Z,101883.34
2022-08-28T20:37:14.238Z,101880.44
2022-08-28T20:39:41.774Z,101880.19
2022-08-28T20:42:13.640Z,101883.38
2022-08-28T20:44:40.628Z,101882.28
2022-08-28T20:47:07.516Z,101879.38
2022-08-28T20:49:39.305Z,101879.75
2022-08-28T20:52:06.933Z,101872.69
2022-08-28T20:54:38.708Z,101875.03
2022-08-28T20:57:09.267Z,101872.41
2022-08-28T20:59:39.911Z,101874.97
2022-08-28T21:02:12.771Z,101877.31
2022-08-28T21:04:43.269Z,101879.69
2022-08-28T21:07:11.200Z,101890.75
2022-08-28T21:10:04.585Z,101898.31
2022-08-28T21:12:24.805Z,101891.00
2022-08-28T21:15:13.178Z,101899.22
2022-08-28T21:17:41.329Z,101903.38
2022-08-28T21:20:11.905Z,101908.16
2022-08-28T21:22:39.696Z,101911.94
2022-08-28T21:25:08.539Z,101914.28
2022-08-28T21:27:35.758Z,101908.31
2022-08-28T21:30:03.778Z,101918.38
2022-08-28T21:32:32.660Z,101920.84
2022-08-28T21:35:01.045Z,101913.72
2022-08-28T21:37:28.423Z,101923.88
2022-08-28T21:39:56.564Z,101923.59
2022-08-28T21:42:23.554Z,101919.50
2022-08-28T21:44:51.975Z,101923.47
2022-08-28T21:47:21.521Z,101920.13
2022-08-28T21:49:50.203Z,101924.09
2022-08-28T21:52:19.344Z,101925.59
2022-08-28T21:54:46.046Z,101933.31
2022-08-28T21:57:12.811Z,101933.03
2022-08-28T21:59:39.837Z,101935.81
2022-08-28T22:02:06.570Z,101932.56
2022-08-28T22:04:33.837Z,101931.28
2022-08-28T22:07:00.489Z,101932.78
2022-08-28T22:09:27.163Z,101932.66
2022-08-28T22:11:53.962Z,101938.94
2022-08-28T22:14:22.468Z,101938.78
2022-08-28T22:16:49.113Z,101934.25
2022-08-28T22:19:15.744Z,101936.41
2022-08-28T22:22:20.808Z,101934.31
2022-08-28T22:24:47.526Z,101931.00
2022-08-28T22:27:15.084Z,101937.25
2022-08-28T22:29:41.725Z,101939.72
2022-08-28T22:32:09.229Z,101938.09
2022-08-28T22:34:40.565Z,101935.78
2022-08-28T22:37:08.139Z,101930.25
2022-08-28T22:39:34.961Z,101943.66
2022-08-28T22:42:02.109Z,101933.06
2022-08-28T22:44:29.594Z,101940.91
2022-08-28T22:46:56.267Z,101933.22
2022-08-28T22:49:23.033Z,101936.34
2022-08-28T22:51:49.707Z,101937.84
2022-08-28T22:54:16.911Z,101929.03
2022-08-28T22:56:43.737Z,101936.38
2022-08-28T22:59:10.944Z,101926.09
2022-08-28T23:01:37.999Z,101931.66
2022-08-28T23:04:04.867Z,101924.16
2022-08-28T23:06:32.358Z,101916.66
2022-08-28T23:08:58.924Z,101921.88
2022-08-28T23:11:25.949Z,101909.63
2022-08-28T23:13:52.573Z,101917.97
2022-08-28T23:16:24.031Z,101910.81
2022-08-28T23:19:07.517Z,101909.53
2022-08-28T23:21:35.687Z,101900.22
2022-08-28T23:24:09.641Z,101901.53
2022-08-28T23:26:36.365Z,101906.44
2022-08-28T23:29:03.729Z,101907.72
2022-08-28T23:31:30.356Z,101903.81
2022-08-28T23:33:56.979Z,101911.00
2022-08-28T23:36:23.822Z,101908.56
2022-08-28T23:38:50.672Z,101907.22
2022-08-28T23:41:18.645Z,101901.72
2022-08-28T23:43:45.881Z,101897.78
2022-08-28T23:46:20.109Z,101890.28
2022-08-28T23:48:50.096Z,101900.22
2022-08-28T23:51:16.995Z,101903.16
2022-08-28T23:53:44.024Z,101891.06
2022-08-28T23:56:11.378Z,101900.69
2022-08-28T23:58:39.736Z,101894.34
